Time;durP1;ratioP1;P1;durP2;ratioP2;P2;SDS_P1;SDS_P2;PMS_P1;PMS_P2;Temp;Humidity;BMP_temperature;BMP_pressure;BME280_temperature;BME280_humidity;BME280_pressure;Samples;Min_cycle;Max_cycle;Signal;HPM_P1;HPM_P2
2021/01/06 00:01:53;;;;;;;45.05;19.30;;;;;;;-1.28;77.81;94994.13;4771605;30;20151;-48
2021/01/06 00:04:20;;;;;;;49.47;20.02;;;;;;;-0.99;77.15;95003.94;4760106;30;20135;-49
2021/01/06 00:06:46;;;;;;;47.10;19.95;;;;;;;-0.82;75.74;95004.28;4753876;30;20141;-46
2021/01/06 00:09:12;;;;;;;42.72;17.63;;;;;;;-0.87;76.08;94996.38;4753606;30;20473;-50
2021/01/06 00:11:40;;;;;;;48.08;18.77;;;;;;;-0.87;75.96;95001.69;4753423;30;20477;-45
2021/01/06 00:14:15;;;;;;;49.30;19.05;;;;;;;-0.99;76.40;94999.44;4752558;30;20088;-46
2021/01/06 00:16:42;;;;;;;47.97;18.45;;;;;;;-0.80;75.62;94988.88;4753728;30;20536;-47
2021/01/06 00:19:12;;;;;;;49.35;19.08;;;;;;;-0.89;76.04;94987.91;4753279;30;20138;-50
2021/01/06 00:21:39;;;;;;;47.13;18.80;;;;;;;-0.63;74.87;94996.38;4753580;30;20172;-49
2021/01/06 00:24:06;;;;;;;48.40;19.90;;;;;;;-0.75;75.37;94998.63;4753589;30;20139;-46
2021/01/06 00:26:35;;;;;;;51.15;18.98;;;;;;;-0.75;75.06;94990.66;4753637;30;20086;-46
2021/01/06 00:29:06;;;;;;;47.25;19.90;;;;;;;-0.62;74.82;94991.84;4753472;30;20060;-45
2021/01/06 00:31:40;;;;;;;45.90;19.63;;;;;;;-0.80;75.34;94990.75;4753917;30;20480;-50
2021/01/06 00:34:07;;;;;;;51.25;21.88;;;;;;;-0.72;75.11;94987.44;4762466;30;20512;-50
2021/01/06 00:36:34;;;;;;;49.00;21.52;;;;;;;-0.68;75.48;94990.31;4757337;30;20080;-49
2021/01/06 00:39:00;;;;;;;48.38;19.38;;;;;;;-0.73;74.93;94991.97;4752700;30;20098;-47
2021/01/06 00:41:28;;;;;;;52.47;21.00;;;;;;;-0.80;75.35;94983.56;4753087;30;20064;-51
2021/01/06 00:43:55;;;;;;;52.78;21.83;;;;;;;-0.86;75.49;94987.34;4753203;30;20060;-49
2021/01/06 00:46:28;;;;;;;52.13;22.23;;;;;;;-1.00;76.62;94981.94;4753105;30;20048;-45
2021/01/06 00:48:56;;;;;;;65.97;20.65;;;;;;;-0.93;76.00;94989.56;4752757;30;20052;-47
2021/01/06 00:51:22;;;;;;;57.17;21.40;;;;;;;-0.87;76.14;94987.63;4752956;30;20113;-48
2021/01/06 00:53:50;;;;;;;51.60;22.52;;;;;;;-1.01;76.58;94990.16;4752034;30;20073;-49
2021/01/06 00:56:16;;;;;;;52.17;20.83;;;;;;;-0.92;76.75;94987.69;4752856;30;20063;-49
2021/01/06 00:58:42;;;;;;;54.63;20.77;;;;;;;-1.08;76.67;94981.75;4752601;30;20139;-45
2021/01/06 01:01:14;;;;;;;55.50;20.80;;;;;;;-1.03;76.65;94982.50;4751641;30;20109;-49
2021/01/06 01:03:44;;;;;;;50.55;20.65;;;;;;;-1.07;77.34;94983.31;4751564;30;20056;-49
2021/01/06 01:06:10;;;;;;;52.00;21.13;;;;;;;-1.23;77.75;94978.19;4751883;30;20072;-47
2021/01/06 01:08:37;;;;;;;48.53;19.92;;;;;;;-1.17;77.90;94973.59;4752408;30;20419;-47
2021/01/06 01:11:03;;;;;;;49.60;20.05;;;;;;;-0.94;76.82;94980.00;4766265;30;20472;-45
2021/01/06 01:13:29;;;;;;;56.42;21.05;;;;;;;-0.89;76.83;94979.94;4752728;30;20068;-46
2021/01/06 01:15:58;;;;;;;56.30;22.38;;;;;;;-0.91;77.07;94971.47;4763354;30;20064;-49
2021/01/06 01:18:27;;;;;;;54.17;21.33;;;;;;;-1.14;77.83;94973.03;4762746;30;20129;-45
2021/01/06 01:20:56;;;;;;;51.78;20.42;;;;;;;-1.06;78.04;94969.78;4752495;30;20083;-45
2021/01/06 01:23:24;;;;;;;50.05;20.80;;;;;;;-1.02;77.92;94967.34;4752492;30;20060;-47
2021/01/06 01:25:52;;;;;;;53.25;21.67;;;;;;;-0.86;77.15;94966.09;4752606;30;20060;-48
2021/01/06 01:28:21;;;;;;;54.08;21.60;;;;;;;-0.81;76.87;94967.94;4751924;30;20056;-50
2021/01/06 01:30:48;;;;;;;58.85;22.38;;;;;;;-0.85;76.62;94962.34;4752168;30;20067;-47
2021/01/06 01:33:17;;;;;;;55.95;22.75;;;;;;;-0.64;75.90;94964.78;4755125;30;20445;-48
2021/01/06 01:35:44;;;;;;;56.30;21.13;;;;;;;-0.62;75.93;94966.06;4762328;30;20087;-45
2021/01/06 01:38:16;;;;;;;55.60;21.80;;;;;;;-0.65;76.16;94961.34;4752159;30;20060;-50
2021/01/06 01:40:43;;;;;;;60.03;22.45;;;;;;;-0.80;76.89;94949.03;4752390;30;20091;-45
2021/01/06 01:43:12;;;;;;;56.65;21.13;;;;;;;-0.76;76.90;94954.56;4752171;30;20067;-45
2021/01/06 01:45:44;;;;;;;63.03;24.00;;;;;;;-0.86;77.10;94963.44;4765427;30;20131;-46
2021/01/06 01:48:44;;;;;;;54.47;20.88;;;;;;;-0.89;77.09;94958.69;4755975;30;20132;-45
2021/01/06 01:51:32;;;;;;;58.65;21.23;;;;;;;-0.57;76.09;94959.91;4770483;30;20090;-46
2021/01/06 01:54:11;;;;;;;54.33;21.55;;;;;;;-0.65;76.36;94963.19;4769598;30;20063;-46
2021/01/06 01:56:53;;;;;;;59.53;22.52;;;;;;;-0.85;77.66;94966.88;4757798;30;20076;-48
2021/01/06 01:59:30;;;;;;;57.83;22.48;;;;;;;-0.77;77.68;94963.63;4751648;30;20070;-49
2021/01/06 02:02:02;;;;;;;53.90;22.70;;;;;;;-0.99;78.72;94961.47;4751831;30;20114;-49
2021/01/06 02:04:37;;;;;;;69.05;23.95;;;;;;;-0.99;79.57;94950.84;4758930;30;20150;-50
2021/01/06 02:07:10;;;;;;;56.30;22.30;;;;;;;-0.89;78.96;94955.25;4769418;30;20083;-49
2021/01/06 02:09:52;;;;;;;68.30;24.55;;;;;;;-0.95;79.76;94951.84;4769278;30;20060;-49
2021/01/06 02:12:47;;;;;;;61.95;25.63;;;;;;;-0.68;78.62;94953.94;4763912;30;20067;-46
2021/01/06 02:15:41;;;;;;;59.53;24.35;;;;;;;-0.50;78.25;94953.16;4751172;30;20092;-46
2021/01/06 02:18:08;;;;;;;64.13;23.65;;;;;;;-0.52;78.20;94950.03;4751245;30;20140;-46
2021/01/06 02:20:35;;;;;;;64.80;24.15;;;;;;;-0.55;78.04;94945.28;4751504;30;20426;-48
2021/01/06 02:23:01;;;;;;;61.58;25.35;;;;;;;-0.58;78.53;94950.38;4751548;30;20766;-48
2021/01/06 02:25:30;;;;;;;69.38;26.58;;;;;;;-0.61;78.79;94950.94;4751625;30;20142;-46
2021/01/06 02:27:59;;;;;;;71.82;25.65;;;;;;;-0.81;80.01;94952.00;4751171;30;20048;-50
2021/01/06 02:30:26;;;;;;;72.13;24.13;;;;;;;-0.50;79.08;94947.06;4751225;30;20477;-48
2021/01/06 02:32:53;;;;;;;71.30;26.73;;;;;;;-0.18;77.77;94948.22;4751516;30;20068;-47
2021/01/06 02:35:21;;;;;;;68.85;26.98;;;;;;;-0.13;77.38;94929.53;4751428;30;20462;-47
2021/01/06 02:37:49;;;;;;;71.68;25.67;;;;;;;0.05;76.73;94941.25;4751625;30;20135;-46
2021/01/06 02:40:17;;;;;;;72.07;27.40;;;;;;;-0.10;77.37;94951.03;4751486;30;20082;-46
2021/01/06 02:42:43;;;;;;;76.43;25.92;;;;;;;-0.09;77.44;94946.50;4751340;30;20064;-50
2021/01/06 02:45:15;;;;;;;78.10;28.60;;;;;;;-0.17;77.62;94949.81;4750194;30;20064;-48
2021/01/06 02:47:46;;;;;;;64.25;24.50;;;;;;;-0.07;77.36;94952.31;4750704;30;20053;-50
2021/01/06 02:50:17;;;;;;;81.47;26.95;;;;;;;-0.09;77.23;94946.50;4751155;30;20477;-45
2021/01/06 02:52:51;;;;;;;73.90;27.00;;;;;;;0.04;76.84;94948.44;4751229;30;20064;-50
2021/01/06 02:55:19;;;;;;;73.35;27.58;;;;;;;-0.30;77.57;94936.16;4751035;30;20090;-46
2021/01/06 02:57:46;;;;;;;80.30;28.75;;;;;;;-0.31;78.31;94939.91;4750756;30;20195;-47
2021/01/06 03:00:20;;;;;;;77.15;26.35;;;;;;;-0.14;78.14;94935.94;4750944;30;20060;-48
2021/01/06 03:02:48;;;;;;;71.95;26.95;;;;;;;-0.01;77.33;94932.53;4750564;30;20148;-48
2021/01/06 03:05:38;;;;;;;70.97;26.70;;;;;;;-0.04;77.41;94936.56;4750760;30;20083;-50
2021/01/06 03:08:10;;;;;;;78.93;28.95;;;;;;;-0.03;77.15;94934.72;4750509;30;20207;-46
2021/01/06 03:10:36;;;;;;;78.07;27.77;;;;;;;-0.21;77.69;94933.66;4750756;30;20142;-50
2021/01/06 03:13:04;;;;;;;81.38;28.63;;;;;;;-0.23;77.83;94933.13;4750632;30;20164;-47
2021/01/06 03:15:30;;;;;;;70.20;27.15;;;;;;;-0.10;77.84;94929.78;4750788;30;20079;-47
2021/01/06 03:17:58;;;;;;;74.20;27.17;;;;;;;0.05;77.24;94934.06;4753144;30;20079;-47
2021/01/06 03:20:46;;;;;;;68.70;23.85;;;;;;;-0.11;77.15;94933.50;4768474;30;20124;-47
2021/01/06 03:23:17;;;;;;;70.97;25.65;;;;;;;-0.09;77.18;94931.34;4768453;30;20052;-47
2021/01/06 03:25:44;;;;;;;74.78;26.33;;;;;;;-0.08;76.97;94926.81;4768367;30;20506;-48
2021/01/06 03:28:16;;;;;;;71.75;27.23;;;;;;;-0.08;76.80;94940.88;4755302;30;20062;-47
2021/01/06 03:30:44;;;;;;;70.93;26.15;;;;;;;-0.16;77.14;94930.91;4750421;30;20094;-46
2021/01/06 03:33:13;;;;;;;71.50;25.10;;;;;;;-0.15;77.35;94926.38;4752946;30;20372;-49
2021/01/06 03:35:43;;;;;;;73.47;26.52;;;;;;;-0.30;77.59;94925.53;4768289;30;20372;-49
2021/01/06 03:38:22;;;;;;;75.15;26.05;;;;;;;-0.33;77.31;94926.09;4766191;30;20125;-47
2021/01/06 03:40:50;;;;;;;72.15;25.95;;;;;;;-0.34;77.60;94919.22;4768541;30;20453;-50
2021/01/06 03:43:18;;;;;;;76.70;27.95;;;;;;;-0.22;77.23;94928.63;4768268;30;20056;-47
2021/01/06 03:45:49;;;;;;;77.47;28.52;;;;;;;-0.30;77.82;94924.72;4758373;30;20117;-48
2021/01/06 03:48:23;;;;;;;75.68;27.65;;;;;;;-0.26;77.81;94923.06;4750029;30;20048;-46
2021/01/06 03:50:54;;;;;;;79.82;28.88;;;;;;;-0.14;77.44;94927.97;4750710;30;20087;-49
2021/01/06 03:53:48;;;;;;;75.97;26.83;;;;;;;0.10;76.93;94914.56;4750660;30;20080;-48
2021/01/06 03:56:29;;;;;;;68.00;27.33;;;;;;;0.06;76.85;94916.22;4750543;30;20405;-49
2021/01/06 03:59:13;;;;;;;70.55;26.50;;;;;;;-0.03;76.66;94913.44;4750309;30;20060;-46
2021/01/06 04:01:48;;;;;;;71.35;26.25;;;;;;;-0.02;76.98;94912.38;4750582;30;20068;-50
2021/01/06 04:04:40;;;;;;;69.05;26.65;;;;;;;0.15;76.07;94915.28;4756380;30;20467;-50
2021/01/06 04:07:42;;;;;;;67.15;25.85;;;;;;;-0.02;75.79;94917.69;4773854;30;20056;-47
2021/01/06 04:10:13;;;;;;;63.65;24.13;;;;;;;-0.26;77.13;94899.97;4776074;29;20138;-48
2021/01/06 04:12:40;;;;;;;75.68;26.77;;;;;;;-0.06;76.74;94908.72;4755867;29;20064;-46
2021/01/06 04:15:11;;;;;;;56.83;23.35;;;;;;;-0.13;75.96;94895.78;4751796;30;20083;-52
2021/01/06 04:17:42;;;;;;;62.75;24.15;;;;;;;-0.19;76.69;94910.22;4753413;30;20121;-46
2021/01/06 04:20:36;;;;;;;65.97;24.60;;;;;;;-0.24;76.80;94903.09;4753099;30;20370;-48
2021/01/06 04:23:04;;;;;;;;;;;;;;;-0.09;76.03;94901.31;4755862;30;20068;-46
2021/01/06 04:25:34;;;;;;;61.65;23.45;;;;;;;-0.07;76.14;94907.91;4753663;30;20375;-47
2021/01/06 04:28:04;;;;;;;63.45;23.08;;;;;;;-0.06;76.01;94903.41;4753097;30;20056;-46
2021/01/06 04:30:39;;;;;;;55.20;23.55;;;;;;;-0.03;75.63;94905.47;4753436;30;20056;-46
2021/01/06 04:33:14;;;;;;;64.55;24.58;;;;;;;-0.27;76.29;94895.69;4755203;30;20584;-47
2021/01/06 04:35:40;;;;;;;64.32;25.10;;;;;;;-0.41;77.03;94894.88;4772146;30;20063;-46
2021/01/06 04:38:07;;;;;;;71.40;24.77;;;;;;;-0.40;77.07;94893.00;4758540;30;20060;-48
2021/01/06 04:40:41;;;;;;;60.70;23.90;;;;;;;-0.52;77.83;94890.75;4753179;30;20527;-49
2021/01/06 04:43:19;;;;;;;66.88;25.17;;;;;;;-0.58;78.17;94891.94;4753356;30;20720;-47
2021/01/06 04:46:02;;;;;;;67.47;24.40;;;;;;;-0.45;77.21;94890.41;4752961;30;20139;-51
2021/01/06 04:48:50;;;;;;;62.35;24.40;;;;;;;-0.53;77.74;94894.50;4752643;30;20504;-46
2021/01/06 04:51:32;;;;;;;68.40;25.73;;;;;;;-0.72;78.38;94897.91;4753132;30;20060;-50
2021/01/06 04:54:26;;;;;;;63.00;24.23;;;;;;;-0.61;78.51;94895.16;4753181;30;20164;-45
2021/01/06 04:57:20;;;;;;;64.00;24.35;;;;;;;-0.47;77.74;94896.00;4753096;30;20060;-46
2021/01/06 05:00:05;;;;;;;56.30;22.27;;;;;;;-0.49;78.11;94898.97;4752972;30;20084;-45
2021/01/06 05:02:50;;;;;;;57.97;23.90;;;;;;;-0.38;77.41;94901.47;4752933;30;20088;-49
2021/01/06 05:05:35;;;;;;;64.15;24.17;;;;;;;-0.15;77.07;94900.59;4752767;30;20481;-48
2021/01/06 05:08:24;;;;;;;62.70;24.45;;;;;;;0.01;76.87;94903.03;4761574;30;20058;-50
2021/01/06 05:10:56;;;;;;;58.88;24.17;;;;;;;0.15;75.82;94896.66;4770603;30;20048;-47
2021/01/06 05:13:28;;;;;;;65.03;23.90;;;;;;;0.09;76.17;94894.38;4769578;30;20133;-46
2021/01/06 05:16:00;;;;;;;60.10;23.42;;;;;;;0.08;76.47;94901.56;4769913;30;20075;-53
2021/01/06 05:18:27;;;;;;;62.60;24.08;;;;;;;0.03;76.90;94893.66;4752264;30;20105;-47
2021/01/06 05:20:57;;;;;;;63.75;25.83;;;;;;;-0.12;77.37;94893.91;4752942;30;20102;-50
2021/01/06 05:23:28;;;;;;;64.43;26.23;;;;;;;-0.17;78.30;94889.44;4752922;30;20118;-50
2021/01/06 05:26:00;;;;;;;65.55;25.17;;;;;;;-0.37;78.43;94903.84;4766444;30;20143;-49
2021/01/06 05:28:26;;;;;;;68.88;26.35;;;;;;;-0.21;78.34;94896.44;4770134;30;20113;-47
2021/01/06 05:30:55;;;;;;;65.10;24.80;;;;;;;-0.22;78.12;94899.38;4770097;30;20540;-46
2021/01/06 05:33:28;;;;;;;68.97;26.33;;;;;;;-0.29;78.70;94907.72;4770299;30;20490;-47
2021/01/06 05:35:55;;;;;;;64.50;23.30;;;;;;;-0.49;79.07;94891.00;4752808;30;20519;-48
2021/01/06 05:38:21;;;;;;;65.13;25.00;;;;;;;-0.38;78.45;94898.81;4752065;30;20048;-47
2021/01/06 05:40:48;;;;;;;66.78;25.38;;;;;;;-0.39;78.80;94898.03;4752111;30;20481;-48
2021/01/06 05:43:17;;;;;;;75.55;28.67;;;;;;;-0.39;78.91;94898.03;4752315;30;20461;-50
2021/01/06 05:45:52;;;;;;;67.75;24.70;;;;;;;-0.55;79.40;94908.09;4752372;30;20064;-50
2021/01/06 05:48:30;;;;;;;65.95;24.35;;;;;;;-0.53;79.35;94900.59;4751250;30;20044;-48
2021/01/06 05:51:15;;;;;;;63.92;25.00;;;;;;;-0.66;79.66;94903.19;4752227;30;20063;-50
2021/01/06 05:54:14;;;;;;;69.65;25.40;;;;;;;-0.49;79.22;94906.94;4752251;30;20525;-48
2021/01/06 05:57:20;;;;;;;64.68;24.58;;;;;;;-0.52;79.55;94906.69;4752195;30;20056;-48
2021/01/06 05:59:47;;;;;;;63.67;22.73;;;;;;;-0.57;79.81;94909.44;4765223;30;20403;-48
2021/01/06 06:02:34;;;;;;;66.22;25.60;;;;;;;-0.67;79.49;94905.06;4752039;30;20153;-46
2021/01/06 06:05:34;;;;;;;64.32;24.38;;;;;;;-0.72;79.87;94907.75;4752239;30;20145;-48
2021/01/06 06:08:31;;;;;;;63.13;24.27;;;;;;;-0.79;80.24;94905.47;4751616;30;20075;-47
2021/01/06 06:11:35;;;;;;;63.20;25.77;;;;;;;-0.68;79.95;94903.47;4751926;30;20473;-47
2021/01/06 06:14:49;;;;;;;67.15;24.77;;;;;;;-0.79;80.91;94908.13;4751555;30;20110;-49
2021/01/06 06:17:21;;;;;;;;;;;;;;;-0.71;80.11;94906.72;4752103;30;20426;-53
2021/01/06 06:20:32;;;;;;;64.05;23.98;;;;;;;-0.78;80.85;94909.72;4750493;30;20313;-49
2021/01/06 06:23:10;;;;;;;61.67;23.40;;;;;;;-0.76;80.23;94912.84;4766843;30;20076;-49
2021/01/06 06:25:48;;;;;;;69.50;24.02;;;;;;;-0.76;81.03;94912.84;4766906;30;20507;-49
2021/01/06 06:28:27;;;;;;;65.43;25.10;;;;;;;-0.67;81.12;94912.22;4757045;30;20131;-49
2021/01/06 06:30:59;;;;;;;64.53;23.52;;;;;;;-0.69;79.85;94906.41;4752002;30;20064;-48
2021/01/06 06:33:33;;;;;;;65.00;25.38;;;;;;;-0.83;81.44;94915.06;4751426;30;20140;-50
2021/01/06 06:36:09;;;;;;;64.78;25.83;;;;;;;-0.61;80.42;94916.41;4751830;30;20121;-50
2021/01/06 06:38:42;;;;;;;68.45;23.40;;;;;;;-0.58;79.75;94913.97;4750798;30;20056;-49
2021/01/06 06:41:21;;;;;;;67.35;24.67;;;;;;;-0.66;80.28;94917.25;4751294;30;20631;-47
2021/01/06 06:43:50;;;;;;;64.75;22.85;;;;;;;-0.79;80.64;94924.03;4751036;30;20084;-48
2021/01/06 06:46:20;;;;;;;68.40;25.15;;;;;;;-0.63;80.43;94926.53;4751258;30;20143;-49
2021/01/06 06:48:48;;;;;;;65.93;23.52;;;;;;;-0.63;80.14;94924.66;4750770;30;20056;-52
2021/01/06 06:51:28;;;;;;;70.13;24.88;;;;;;;-0.62;80.36;94925.44;4751274;30;20066;-48
2021/01/06 06:54:05;;;;;;;72.72;26.75;;;;;;;-0.54;79.22;94922.94;4750206;30;20052;-51
2021/01/06 06:57:02;;;;;;;60.05;23.83;;;;;;;-0.84;80.42;94932.09;4751201;30;20068;-49
2021/01/06 06:59:42;;;;;;;64.93;24.20;;;;;;;-1.01;81.78;94929.09;4749792;30;20088;-49
2021/01/06 07:02:09;;;;;;;66.00;23.08;;;;;;;-0.79;81.01;94926.69;4751202;30;20072;-52
2021/01/06 07:04:47;;;;;;;68.95;22.98;;;;;;;-0.84;80.37;94939.28;4751082;30;20056;-48
2021/01/06 07:07:33;;;;;;;63.88;22.67;;;;;;;-1.06;81.43;94937.13;4750970;30;20055;-51
2021/01/06 07:10:03;;;;;;;60.80;22.88;;;;;;;-0.78;80.71;94943.41;4781300;30;20063;-47
2021/01/06 07:12:38;;;;;;;65.88;23.25;;;;;;;-0.81;80.37;94936.84;4786125;29;20063;-46
2021/01/06 07:15:06;;;;;;;75.18;25.15;;;;;;;-0.86;81.05;94934.22;4779918;29;20048;-45
2021/01/06 07:17:38;;;;;;;61.83;23.20;;;;;;;-0.44;79.63;94937.16;4750332;30;20129;-48
2021/01/06 07:20:09;;;;;;;64.03;25.17;;;;;;;-0.82;80.35;94947.72;4762344;30;20051;-48
2021/01/06 07:22:52;;;;;;;69.88;24.10;;;;;;;-0.92;80.98;94945.19;4786196;29;20472;-48
2021/01/06 07:25:18;;;;;;;68.47;24.05;;;;;;;-0.70;80.39;94950.78;4786600;29;20056;-46
2021/01/06 07:27:49;;;;;;;71.97;24.98;;;;;;;-0.87;80.92;94948.59;4751948;29;20056;-46
2021/01/06 07:30:31;;;;;;;70.72;25.00;;;;;;;-0.93;81.29;94952.38;4782507;29;20116;-50
2021/01/06 07:32:59;;;;;;;71.43;24.40;;;;;;;-0.98;80.83;94947.91;4763758;30;20519;-47
2021/01/06 07:35:28;;;;;;;66.72;23.02;;;;;;;-0.96;81.32;94966.22;4763662;30;20133;-46
2021/01/06 07:38:03;;;;;;;72.50;24.73;;;;;;;-1.09;81.45;94961.59;4763719;30;20510;-46
2021/01/06 07:40:36;;;;;;;74.50;24.48;;;;;;;-0.97;81.54;94956.69;4768841;30;20055;-47
2021/01/06 07:43:08;;;;;;;64.90;23.77;;;;;;;-1.10;82.11;94963.44;4768737;30;20166;-50
2021/01/06 07:45:40;;;;;;;68.03;23.63;;;;;;;-1.40;82.57;94951.25;4767197;30;20506;-49
2021/01/06 07:48:15;;;;;;;64.25;24.38;;;;;;;-1.10;81.85;94963.44;4766639;30;20300;-49
2021/01/06 07:50:51;;;;;;;64.57;23.23;;;;;;;-0.88;81.38;94967.44;4771780;30;20063;-47
2021/01/06 07:53:20;;;;;;;71.72;26.23;;;;;;;-0.92;81.34;94964.56;4772110;30;20429;-48
2021/01/06 07:56:04;;;;;;;73.35;24.92;;;;;;;-0.66;80.34;94973.03;4772382;29;20549;-48
2021/01/06 07:58:33;;;;;;;67.68;23.58;;;;;;;-0.64;79.39;94972.75;4754456;30;20089;-48
2021/01/06 08:01:06;;;;;;;68.97;24.65;;;;;;;-0.87;80.53;94969.84;4767088;30;20085;-48
2021/01/06 08:03:59;;;;;;;64.70;23.52;;;;;;;-0.77;80.39;94980.34;4768693;30;20056;-47
2021/01/06 08:06:49;;;;;;;67.28;23.17;;;;;;;-1.01;81.65;94982.19;4757348;30;20083;-46
2021/01/06 08:09:27;;;;;;;65.63;22.00;;;;;;;-0.90;80.63;94986.34;4770936;30;20059;-46
2021/01/06 08:11:54;;;;;;;58.28;22.48;;;;;;;-0.78;79.93;94983.25;4770327;30;20511;-47
2021/01/06 08:14:27;;;;;;;62.58;21.70;;;;;;;-1.04;80.69;94980.09;4771675;30;20063;-47
2021/01/06 08:16:59;;;;;;;;;;;;;;;-0.77;80.15;94975.03;4770811;30;20147;-49
2021/01/06 08:19:33;;;;;;;55.17;19.83;;;;;;;-0.95;80.73;94989.03;4768506;29;19983;-51
2021/01/06 08:22:08;;;;;;;56.50;20.63;;;;;;;-0.88;80.42;94978.06;4770942;30;20591;-48
2021/01/06 08:24:41;;;;;;;58.33;22.30;;;;;;;-1.07;80.95;94983.31;4771252;30;20092;-52
2021/01/06 08:27:16;;;;;;;68.55;23.20;;;;;;;-0.78;80.15;94984.06;4753662;30;20060;-49
2021/01/06 08:29:44;;;;;;;61.97;23.27;;;;;;;-0.92;80.88;94991.13;4767905;30;20060;-50
2021/01/06 08:32:16;;;;;;;57.85;21.65;;;;;;;-0.72;80.29;94987.44;4765839;30;20071;-49
2021/01/06 08:34:56;;;;;;;59.58;23.85;;;;;;;-0.68;80.23;94988.47;4777080;30;20161;-48
2021/01/06 08:37:29;;;;;;;65.57;23.38;;;;;;;-0.82;80.40;94995.53;4777378;30;20047;-49
2021/01/06 08:39:57;;;;;;;64.03;23.95;;;;;;;-0.93;81.41;94997.50;4773666;30;20059;-50
2021/01/06 08:42:38;;;;;;;64.18;22.52;;;;;;;-0.80;80.01;94996.84;4763319;30;20052;-52
2021/01/06 08:45:06;;;;;;;57.15;23.25;;;;;;;-0.74;80.96;94987.75;4773748;29;20403;-51
2021/01/06 08:47:36;;;;;;;53.60;21.23;;;;;;;-0.65;80.61;94995.88;4775930;30;20727;-48
2021/01/06 08:50:23;;;;;;;61.55;22.73;;;;;;;-0.67;80.01;94995.38;4768465;30;20055;-50
2021/01/06 08:52:52;;;;;;;67.45;23.92;;;;;;;-0.52;80.62;94991.72;4769076;29;20075;-50
2021/01/06 08:55:23;;;;;;;60.35;23.90;;;;;;;-0.12;78.54;95005.56;4783276;29;20048;-52
2021/01/06 08:57:59;;;;;;;58.55;22.52;;;;;;;-0.41;79.57;94995.84;4771588;29;20087;-51
2021/01/06 09:00:41;;;;;;;59.67;23.13;;;;;;;-0.55;79.83;94997.63;4778680;29;20056;-47
2021/01/06 09:03:17;;;;;;;50.05;21.17;;;;;;;-0.38;79.32;94999.81;4781631;29;20047;-49
2021/01/06 09:05:44;;;;;;;59.38;23.05;;;;;;;-0.40;79.26;94994.75;4769104;30;20159;-46
2021/01/06 09:08:17;;;;;;;52.85;21.08;;;;;;;-0.33;79.20;95011.13;4773374;30;20056;-47
2021/01/06 09:11:00;;;;;;;52.95;22.23;;;;;;;-0.44;79.96;95011.56;4771687;30;20064;-49
2021/01/06 09:13:52;;;;;;;50.30;20.25;;;;;;;-0.35;78.12;95008.00;4770561;30;20058;-50
2021/01/06 09:16:34;;;;;;;57.25;21.88;;;;;;;-0.35;79.71;95013.31;4774934;30;20059;-48
2021/01/06 09:19:05;;;;;;;53.38;20.50;;;;;;;-0.22;79.03;95011.81;4768672;30;20055;-50
2021/01/06 09:21:33;;;;;;;52.33;21.08;;;;;;;-0.09;78.65;95010.31;4775323;30;20059;-45
2021/01/06 09:24:09;;;;;;;45.17;19.33;;;;;;;0.00;78.65;95019.25;4779275;29;20067;-47
2021/01/06 09:26:38;;;;;;;49.75;19.65;;;;;;;-0.21;78.74;95015.25;4770904;30;20616;-44
2021/01/06 09:29:13;;;;;;;48.97;19.35;;;;;;;-0.23;79.11;95023.50;4773368;29;20154;-50
2021/01/06 09:31:46;;;;;;;50.35;19.83;;;;;;;-0.44;79.72;95025.66;4785063;29;20541;-44
2021/01/06 09:34:15;;;;;;;53.28;20.80;;;;;;;-0.32;79.47;95023.38;4787337;29;20116;-51
2021/01/06 09:36:42;;;;;;;50.08;18.98;;;;;;;-0.35;79.51;95017.84;4764038;29;20477;-47
2021/01/06 09:39:18;;;;;;;51.88;20.35;;;;;;;-0.50;80.50;95021.47;4751908;30;20480;-46
2021/01/06 09:41:45;;;;;;;47.28;18.83;;;;;;;-0.36;79.56;95037.50;4752392;30;20060;-51
2021/01/06 09:44:12;;;;;;;45.53;17.45;;;;;;;-0.42;79.92;95034.13;4755511;30;20063;-51
2021/01/06 09:46:50;;;;;;;41.75;18.45;;;;;;;-0.50;80.23;95032.09;4769101;30;20064;-46
2021/01/06 09:49:23;;;;;;;46.25;18.52;;;;;;;-0.30;79.92;95031.84;4756269;30;20080;-48
2021/01/06 09:51:54;;;;;;;41.28;18.65;;;;;;;-0.28;80.16;95037.66;4752453;30;20083;-46
2021/01/06 09:54:21;;;;;;;46.53;18.10;;;;;;;-0.04;78.72;95042.94;4752185;30;20098;-45
2021/01/06 09:56:47;;;;;;;44.63;17.05;;;;;;;-0.40;80.08;95037.28;4752109;30;20135;-46
2021/01/06 09:59:27;;;;;;;45.25;18.10;;;;;;;-0.16;79.36;95041.75;4751691;30;20134;-46
2021/01/06 10:02:14;;;;;;;45.78;19.15;;;;;;;0.05;78.76;95043.09;4752226;30;20141;-49
2021/01/06 10:04:42;;;;;;;40.20;16.95;;;;;;;0.11;78.39;95036.63;4752217;30;20075;-48
2021/01/06 10:07:21;;;;;;;42.42;16.45;;;;;;;-0.01;78.39;95033.59;4751575;30;20079;-48
2021/01/06 10:09:59;;;;;;;41.75;17.38;;;;;;;0.03;78.60;95041.78;4750693;30;20056;-45
2021/01/06 10:12:49;;;;;;;42.47;18.33;;;;;;;-0.04;79.14;95034.16;4750522;30;20080;-47
2021/01/06 10:15:22;;;;;;;39.10;16.67;;;;;;;0.23;77.61;95029.00;4751674;30;20147;-46
2021/01/06 10:18:23;;;;;;;41.78;16.25;;;;;;;0.08;78.72;95031.09;4752847;30;20530;-47
2021/01/06 10:21:33;;;;;;;38.80;16.15;;;;;;;0.28;77.19;95025.47;4770128;30;20066;-45
2021/01/06 10:24:05;;;;;;;38.33;16.15;;;;;;;-0.16;78.78;95023.16;4785234;29;20055;-47
2021/01/06 10:26:37;;;;;;;38.20;15.88;;;;;;;-0.10;78.38;95030.00;4768972;30;20163;-45
2021/01/06 10:29:12;;;;;;;37.60;15.93;;;;;;;0.04;78.85;95030.88;4751285;30;20616;-45
2021/01/06 10:32:09;;;;;;;38.05;15.98;;;;;;;0.26;77.20;95026.84;4751467;30;20191;-46
2021/01/06 10:34:48;;;;;;;35.33;16.23;;;;;;;0.02;77.95;95027.72;4750601;30;20052;-46
2021/01/06 10:37:31;;;;;;;35.17;15.32;;;;;;;0.03;78.52;95028.50;4755119;30;20503;-51
2021/01/06 10:40:11;;;;;;;37.58;17.73;;;;;;;-0.29;79.69;95028.13;4769210;30;20063;-47
2021/01/06 10:42:38;;;;;;;35.28;14.98;;;;;;;0.13;78.48;95023.84;4769191;30;20128;-46
2021/01/06 10:45:05;;;;;;;38.90;15.50;;;;;;;0.05;78.60;95011.19;4769191;30;20079;-45
2021/01/06 10:47:31;;;;;;;37.80;16.95;;;;;;;0.18;77.95;95017.66;4753882;30;20559;-44
2021/01/06 10:50:04;;;;;;;37.33;16.55;;;;;;;0.06;78.26;95025.25;4768779;30;20052;-46
2021/01/06 10:52:52;;;;;;;35.13;15.68;;;;;;;0.26;77.60;95018.84;4767773;30;20562;-46
2021/01/06 10:55:32;;;;;;;36.15;15.77;;;;;;;0.15;78.53;95021.66;4769265;30;20064;-45
2021/01/06 10:58:16;;;;;;;39.25;16.38;;;;;;;0.05;77.51;95019.16;4761064;30;20052;-44
2021/01/06 11:01:10;;;;;;;33.15;15.15;;;;;;;0.14;78.54;95014.00;4751418;30;20063;-44
2021/01/06 11:04:20;;;;;;;37.72;16.85;;;;;;;0.25;78.18;95014.63;4751377;30;20048;-46
2021/01/06 11:07:23;;;;;;;36.08;15.90;;;;;;;0.17;78.82;95021.41;4766660;30;20574;-47
2021/01/06 11:09:52;;;;;;;40.85;16.10;;;;;;;0.38;78.17;95022.66;4751202;30;20060;-47
2021/01/06 11:12:37;;;;;;;36.13;16.38;;;;;;;0.01;78.10;95015.50;4751330;30;20068;-46
2021/01/06 11:15:22;;;;;;;37.13;16.42;;;;;;;-0.10;79.28;95025.50;4752527;30;20431;-44
2021/01/06 11:18:23;;;;;;;35.17;16.80;;;;;;;0.32;77.83;95018.47;4765752;30;20067;-47
2021/01/06 11:21:14;;;;;;;37.10;16.40;;;;;;;0.33;77.21;95016.63;4751076;30;20116;-49
2021/01/06 11:23:49;;;;;;;38.30;16.42;;;;;;;0.39;77.34;95012.78;4753278;30;20058;-47
2021/01/06 11:26:30;;;;;;;40.00;16.42;;;;;;;0.46;77.36;95022.00;4756979;30;20511;-45
2021/01/06 11:29:13;;;;;;;37.08;16.05;;;;;;;0.20;77.63;95021.59;4756445;30;20064;-47
2021/01/06 11:32:00;;;;;;;34.53;15.07;;;;;;;0.04;78.65;95022.91;4756636;30;20062;-45
2021/01/06 11:34:32;;;;;;;36.78;16.05;;;;;;;-0.03;78.70;95019.81;4764356;30;20095;-45
2021/01/06 11:37:00;;;;;;;34.83;15.93;;;;;;;0.23;77.79;95018.38;4763265;30;20110;-46
2021/01/06 11:39:26;;;;;;;39.45;16.90;;;;;;;0.28;78.53;95016.69;4774065;30;20105;-46
2021/01/06 11:42:06;;;;;;;32.20;15.60;;;;;;;0.62;76.90;95013.78;4775931;30;20134;-47
2021/01/06 11:45:13;;;;;;;34.03;16.13;;;;;;;0.39;77.18;95015.44;4774730;30;20056;-44
2021/01/06 11:48:32;;;;;;;35.10;15.32;;;;;;;0.38;77.65;95013.88;4756625;30;20127;-44
2021/01/06 11:51:19;;;;;;;47.63;22.73;;;;;;;0.63;77.13;95010.03;4759699;30;20490;-46
2021/01/06 11:53:56;;;;;;;37.60;16.23;;;;;;;0.64;76.26;94999.09;4784879;30;20064;-45
2021/01/06 11:56:30;;;;;;;34.20;15.68;;;;;;;0.69;75.83;94996.34;4789446;29;20063;-47
2021/01/06 11:59:09;;;;;;;34.03;14.50;;;;;;;0.43;76.31;95001.31;4769612;30;20056;-45